sensor_id;sensor_type;location;lat;lon;timestamp;P1;durP1;ratioP1;P2;durP2;ratioP2
26113;SDS011;13966;48.828;9.064;2024-01-06T00:01:46;7.80;;;4.45;;
26113;SDS011;13966;48.828;9.064;2024-01-06T00:04:12;8.98;;;4.85;;
26113;SDS011;13966;48.828;9.064;2024-01-06T00:06:40;7.22;;;3.72;;
26113;SDS011;13966;48.828;9.064;2024-01-06T00:09:06;9.02;;;3.63;;
26113;SDS011;13966;48.828;9.064;2024-01-06T00:11:32;7.38;;;3.28;;
26113;SDS011;13966;48.828;9.064;2024-01-06T00:13:58;7.40;;;3.35;;
26113;SDS011;13966;48.828;9.064;2024-01-06T00:16:24;6.05;;;3.40;;
26113;SDS011;13966;48.828;9.064;2024-01-06T00:18:50;4.65;;;3.53;;
26113;SDS011;13966;48.828;9.064;2024-01-06T00:21:16;7.93;;;3.92;;
26113;SDS011;13966;48.828;9.064;2024-01-06T00:23:42;7.15;;;4.25;;
26113;SDS011;13966;48.828;9.064;2024-01-06T00:26:09;6.30;;;3.55;;
26113;SDS011;13966;48.828;9.064;2024-01-06T00:28:35;7.75;;;3.60;;
26113;SDS011;13966;48.828;9.064;2024-01-06T00:31:02;4.63;;;2.88;;
26113;SDS011;13966;48.828;9.064;2024-01-06T00:33:28;5.10;;;2.58;;
26113;SDS011;13966;48.828;9.064;2024-01-06T00:35:54;5.85;;;3.20;;
26113;SDS011;13966;48.828;9.064;2024-01-06T00:38:20;6.53;;;3.28;;
26113;SDS011;13966;48.828;9.064;2024-01-06T00:40:46;5.45;;;2.67;;
26113;SDS011;13966;48.828;9.064;2024-01-06T00:43:13;9.00;;;2.60;;
26113;SDS011;13966;48.828;9.064;2024-01-06T00:45:39;6.63;;;2.50;;
26113;SDS011;13966;48.828;9.064;2024-01-06T00:48:05;6.72;;;2.53;;
26113;SDS011;13966;48.828;9.064;2024-01-06T00:50:31;5.03;;;2.53;;
26113;SDS011;13966;48.828;9.064;2024-01-06T00:52:57;8.25;;;2.25;;
26113;SDS011;13966;48.828;9.064;2024-01-06T00:55:23;4.35;;;2.33;;
26113;SDS011;13966;48.828;9.064;2024-01-06T00:57:49;5.30;;;2.05;;
26113;SDS011;13966;48.828;9.064;2024-01-06T01:00:15;5.82;;;2.28;;
26113;SDS011;13966;48.828;9.064;2024-01-06T01:02:42;7.40;;;1.83;;
26113;SDS011;13966;48.828;9.064;2024-01-06T01:05:08;5.55;;;1.80;;
26113;SDS011;13966;48.828;9.064;2024-01-06T01:07:34;5.50;;;1.88;;
26113;SDS011;13966;48.828;9.064;2024-01-06T01:10:00;4.50;;;1.60;;
26113;SDS011;13966;48.828;9.064;2024-01-06T01:12:26;5.75;;;1.98;;
26113;SDS011;13966;48.828;9.064;2024-01-06T01:14:53;2.55;;;1.85;;
26113;SDS011;13966;48.828;9.064;2024-01-06T01:17:19;3.10;;;1.60;;
26113;SDS011;13966;48.828;9.064;2024-01-06T01:19:45;10.80;;;1.83;;
26113;SDS011;13966;48.828;9.064;2024-01-06T01:22:11;6.22;;;1.67;;
26113;SDS011;13966;48.828;9.064;2024-01-06T01:24:37;7.97;;;2.00;;
26113;SDS011;13966;48.828;9.064;2024-01-06T01:27:04;5.90;;;2.03;;
26113;SDS011;13966;48.828;9.064;2024-01-06T01:29:30;6.40;;;2.38;;
26113;SDS011;13966;48.828;9.064;2024-01-06T01:31:56;5.15;;;1.60;;
26113;SDS011;13966;48.828;9.064;2024-01-06T01:34:22;7.40;;;2.05;;
26113;SDS011;13966;48.828;9.064;2024-01-06T01:36:48;5.45;;;1.65;;
26113;SDS011;13966;48.828;9.064;2024-01-06T01:39:14;8.75;;;2.28;;
26113;SDS011;13966;48.828;9.064;2024-01-06T01:41:40;4.18;;;2.25;;
26113;SDS011;13966;48.828;9.064;2024-01-06T01:44:06;5.43;;;1.83;;
26113;SDS011;13966;48.828;9.064;2024-01-06T01:46:32;8.40;;;2.00;;
26113;SDS011;13966;48.828;9.064;2024-01-06T01:48:59;3.10;;;1.77;;
26113;SDS011;13966;48.828;9.064;2024-01-06T01:51:32;5.40;;;2.17;;
26113;SDS011;13966;48.828;9.064;2024-01-06T01:53:59;5.95;;;1.90;;
26113;SDS011;13966;48.828;9.064;2024-01-06T01:56:25;5.22;;;2.05;;
26113;SDS011;13966;48.828;9.064;2024-01-06T01:58:51;5.03;;;1.83;;
26113;SDS011;13966;48.828;9.064;2024-01-06T02:01:17;6.30;;;1.92;;
26113;SDS011;13966;48.828;9.064;2024-01-06T02:03:44;6.40;;;1.70;;
26113;SDS011;13966;48.828;9.064;2024-01-06T02:06:10;5.68;;;1.98;;
26113;SDS011;13966;48.828;9.064;2024-01-06T02:08:36;3.95;;;1.65;;
26113;SDS011;13966;48.828;9.064;2024-01-06T02:11:03;7.85;;;2.05;;
26113;SDS011;13966;48.828;9.064;2024-01-06T02:13:36;9.68;;;2.10;;
26113;SDS011;13966;48.828;9.064;2024-01-06T02:16:02;9.43;;;2.28;;
26113;SDS011;13966;48.828;9.064;2024-01-06T02:18:29;9.32;;;1.80;;
26113;SDS011;13966;48.828;9.064;2024-01-06T02:20:57;5.22;;;1.75;;
26113;SDS011;13966;48.828;9.064;2024-01-06T02:23:23;8.52;;;2.20;;
26113;SDS011;13966;48.828;9.064;2024-01-06T02:25:49;8.63;;;1.92;;
26113;SDS011;13966;48.828;9.064;2024-01-06T02:28:15;5.93;;;1.50;;
26113;SDS011;13966;48.828;9.064;2024-01-06T02:30:42;3.80;;;1.60;;
26113;SDS011;13966;48.828;9.064;2024-01-06T02:33:07;13.48;;;2.28;;
26113;SDS011;13966;48.828;9.064;2024-01-06T02:35:33;6.07;;;1.70;;
26113;SDS011;13966;48.828;9.064;2024-01-06T02:38:00;4.43;;;1.70;;
26113;SDS011;13966;48.828;9.064;2024-01-06T02:40:26;7.00;;;2.00;;
26113;SDS011;13966;48.828;9.064;2024-01-06T02:42:52;2.20;;;1.50;;
26113;SDS011;13966;48.828;9.064;2024-01-06T02:45:18;4.57;;;1.60;;
26113;SDS011;13966;48.828;9.064;2024-01-06T02:47:45;5.55;;;1.90;;
26113;SDS011;13966;48.828;9.064;2024-01-06T02:50:11;6.15;;;1.63;;
26113;SDS011;13966;48.828;9.064;2024-01-06T02:52:37;8.00;;;1.75;;
26113;SDS011;13966;48.828;9.064;2024-01-06T02:55:03;7.40;;;2.03;;
26113;SDS011;13966;48.828;9.064;2024-01-06T02:57:29;8.10;;;4.43;;
26113;SDS011;13966;48.828;9.064;2024-01-06T02:59:55;11.95;;;5.85;;
26113;SDS011;13966;48.828;9.064;2024-01-06T03:02:22;7.43;;;3.05;;
26113;SDS011;13966;48.828;9.064;2024-01-06T03:04:48;5.70;;;1.65;;
26113;SDS011;13966;48.828;9.064;2024-01-06T03:07:14;7.10;;;2.40;;
26113;SDS011;13966;48.828;9.064;2024-01-06T03:09:40;8.95;;;2.00;;
26113;SDS011;13966;48.828;9.064;2024-01-06T03:12:06;6.70;;;1.85;;
26113;SDS011;13966;48.828;9.064;2024-01-06T03:14:36;3.95;;;1.90;;
26113;SDS011;13966;48.828;9.064;2024-01-06T03:17:02;4.25;;;1.83;;
26113;SDS011;13966;48.828;9.064;2024-01-06T03:19:28;6.25;;;2.40;;
26113;SDS011;13966;48.828;9.064;2024-01-06T03:21:54;7.88;;;2.08;;
26113;SDS011;13966;48.828;9.064;2024-01-06T03:24:21;4.93;;;1.80;;
26113;SDS011;13966;48.828;9.064;2024-01-06T03:26:47;14.45;;;1.73;;
26113;SDS011;13966;48.828;9.064;2024-01-06T03:29:13;9.73;;;2.42;;
26113;SDS011;13966;48.828;9.064;2024-01-06T03:31:42;6.43;;;1.85;;
26113;SDS011;13966;48.828;9.064;2024-01-06T03:34:08;7.50;;;2.03;;
26113;SDS011;13966;48.828;9.064;2024-01-06T03:36:36;6.03;;;1.80;;
26113;SDS011;13966;48.828;9.064;2024-01-06T03:39:02;8.52;;;2.38;;
26113;SDS011;13966;48.828;9.064;2024-01-06T03:41:28;3.72;;;1.70;;
26113;SDS011;13966;48.828;9.064;2024-01-06T03:43:54;11.15;;;2.25;;
26113;SDS011;13966;48.828;9.064;2024-01-06T03:46:20;5.18;;;1.70;;
26113;SDS011;13966;48.828;9.064;2024-01-06T03:48:46;5.25;;;1.70;;
26113;SDS011;13966;48.828;9.064;2024-01-06T03:51:12;3.55;;;1.92;;
26113;SDS011;13966;48.828;9.064;2024-01-06T03:53:38;8.48;;;2.00;;
26113;SDS011;13966;48.828;9.064;2024-01-06T03:56:05;6.85;;;1.85;;
26113;SDS011;13966;48.828;9.064;2024-01-06T03:58:31;5.50;;;1.80;;
26113;SDS011;13966;48.828;9.064;2024-01-06T04:00:57;5.50;;;2.00;;
26113;SDS011;13966;48.828;9.064;2024-01-06T04:03:23;10.55;;;3.00;;
26113;SDS011;13966;48.828;9.064;2024-01-06T04:05:49;5.75;;;2.45;;
26113;SDS011;13966;48.828;9.064;2024-01-06T04:08:15;5.25;;;2.00;;
26113;SDS011;13966;48.828;9.064;2024-01-06T04:10:41;5.43;;;1.75;;
26113;SDS011;13966;48.828;9.064;2024-01-06T04:13:08;6.97;;;1.85;;
26113;SDS011;13966;48.828;9.064;2024-01-06T04:15:33;4.30;;;1.80;;
26113;SDS011;13966;48.828;9.064;2024-01-06T04:18:03;4.95;;;1.58;;
26113;SDS011;13966;48.828;9.064;2024-01-06T04:20:29;6.05;;;1.60;;
26113;SDS011;13966;48.828;9.064;2024-01-06T04:22:55;6.55;;;1.88;;
26113;SDS011;13966;48.828;9.064;2024-01-06T04:25:21;5.07;;;1.70;;
26113;SDS011;13966;48.828;9.064;2024-01-06T04:27:47;4.75;;;1.52;;
26113;SDS011;13966;48.828;9.064;2024-01-06T04:30:14;5.45;;;1.60;;
26113;SDS011;13966;48.828;9.064;2024-01-06T04:32:40;7.45;;;1.95;;
26113;SDS011;13966;48.828;9.064;2024-01-06T04:35:06;9.68;;;2.08;;
26113;SDS011;13966;48.828;9.064;2024-01-06T04:37:32;3.97;;;1.60;;
26113;SDS011;13966;48.828;9.064;2024-01-06T04:39:58;5.25;;;1.40;;
26113;SDS011;13966;48.828;9.064;2024-01-06T04:42:25;5.15;;;1.52;;
26113;SDS011;13966;48.828;9.064;2024-01-06T04:44:51;6.25;;;1.65;;
26113;SDS011;13966;48.828;9.064;2024-01-06T04:47:17;6.00;;;1.50;;
26113;SDS011;13966;48.828;9.064;2024-01-06T04:49:43;7.13;;;1.88;;
26113;SDS011;13966;48.828;9.064;2024-01-06T04:52:09;4.47;;;1.50;;
26113;SDS011;13966;48.828;9.064;2024-01-06T04:54:35;4.40;;;1.60;;
26113;SDS011;13966;48.828;9.064;2024-01-06T04:57:01;3.88;;;1.48;;
26113;SDS011;13966;48.828;9.064;2024-01-06T04:59:29;4.38;;;1.67;;
26113;SDS011;13966;48.828;9.064;2024-01-06T05:01:56;5.88;;;1.95;;
26113;SDS011;13966;48.828;9.064;2024-01-06T05:04:22;5.15;;;1.75;;
26113;SDS011;13966;48.828;9.064;2024-01-06T05:06:49;4.03;;;1.52;;
26113;SDS011;13966;48.828;9.064;2024-01-06T05:09:15;5.50;;;2.05;;
26113;SDS011;13966;48.828;9.064;2024-01-06T05:11:43;3.13;;;1.67;;
26113;SDS011;13966;48.828;9.064;2024-01-06T05:14:09;6.93;;;1.83;;
26113;SDS011;13966;48.828;9.064;2024-01-06T05:16:35;6.00;;;2.10;;
26113;SDS011;13966;48.828;9.064;2024-01-06T05:19:01;5.53;;;1.85;;
26113;SDS011;13966;48.828;9.064;2024-01-06T05:21:27;8.57;;;1.90;;
26113;SDS011;13966;48.828;9.064;2024-01-06T05:23:53;7.65;;;2.05;;
26113;SDS011;13966;48.828;9.064;2024-01-06T05:26:19;8.02;;;1.98;;
26113;SDS011;13966;48.828;9.064;2024-01-06T05:28:45;5.85;;;2.10;;
26113;SDS011;13966;48.828;9.064;2024-01-06T05:31:11;5.97;;;2.00;;
26113;SDS011;13966;48.828;9.064;2024-01-06T05:33:37;7.63;;;2.22;;
26113;SDS011;13966;48.828;9.064;2024-01-06T05:36:03;6.30;;;1.90;;
26113;SDS011;13966;48.828;9.064;2024-01-06T05:38:29;4.43;;;2.53;;
26113;SDS011;13966;48.828;9.064;2024-01-06T05:40:55;7.10;;;2.50;;
26113;SDS011;13966;48.828;9.064;2024-01-06T05:43:21;7.20;;;3.17;;
26113;SDS011;13966;48.828;9.064;2024-01-06T05:45:47;7.25;;;2.83;;
26113;SDS011;13966;48.828;9.064;2024-01-06T05:48:13;7.50;;;2.80;;
26113;SDS011;13966;48.828;9.064;2024-01-06T05:50:39;7.47;;;2.60;;
26113;SDS011;13966;48.828;9.064;2024-01-06T05:53:05;6.65;;;3.00;;
26113;SDS011;13966;48.828;9.064;2024-01-06T05:55:31;8.20;;;2.85;;
26113;SDS011;13966;48.828;9.064;2024-01-06T05:57:57;5.45;;;2.47;;
26113;SDS011;13966;48.828;9.064;2024-01-06T06:00:23;5.10;;;2.58;;
26113;SDS011;13966;48.828;9.064;2024-01-06T06:02:49;7.50;;;3.08;;
26113;SDS011;13966;48.828;9.064;2024-01-06T06:05:15;8.20;;;2.53;;
26113;SDS011;13966;48.828;9.064;2024-01-06T06:07:41;7.07;;;2.83;;
26113;SDS011;13966;48.828;9.064;2024-01-06T06:10:09;6.70;;;2.80;;
26113;SDS011;13966;48.828;9.064;2024-01-06T06:12:35;5.90;;;2.72;;
26113;SDS011;13966;48.828;9.064;2024-01-06T06:15:01;5.25;;;2.78;;
26113;SDS011;13966;48.828;9.064;2024-01-06T06:17:29;7.35;;;2.70;;
26113;SDS011;13966;48.828;9.064;2024-01-06T06:19:55;6.05;;;2.40;;
26113;SDS011;13966;48.828;9.064;2024-01-06T06:22:22;5.38;;;2.33;;
26113;SDS011;13966;48.828;9.064;2024-01-06T06:24:48;4.93;;;2.70;;
26113;SDS011;13966;48.828;9.064;2024-01-06T06:27:14;7.05;;;2.45;;
26113;SDS011;13966;48.828;9.064;2024-01-06T06:29:40;6.07;;;2.65;;
26113;SDS011;13966;48.828;9.064;2024-01-06T06:32:06;6.32;;;2.58;;
26113;SDS011;13966;48.828;9.064;2024-01-06T06:34:32;3.90;;;2.13;;
26113;SDS011;13966;48.828;9.064;2024-01-06T06:36:58;5.35;;;2.13;;
26113;SDS011;13966;48.828;9.064;2024-01-06T06:39:24;4.90;;;2.50;;
26113;SDS011;13966;48.828;9.064;2024-01-06T06:41:52;6.03;;;2.60;;
26113;SDS011;13966;48.828;9.064;2024-01-06T06:44:18;5.18;;;3.17;;
26113;SDS011;13966;48.828;9.064;2024-01-06T06:46:44;8.40;;;2.90;;
26113;SDS011;13966;48.828;9.064;2024-01-06T06:49:10;6.97;;;2.70;;
26113;SDS011;13966;48.828;9.064;2024-01-06T06:51:36;7.10;;;3.50;;
26113;SDS011;13966;48.828;9.064;2024-01-06T06:54:02;6.38;;;3.47;;
26113;SDS011;13966;48.828;9.064;2024-01-06T06:56:28;5.72;;;2.97;;
26113;SDS011;13966;48.828;9.064;2024-01-06T06:58:53;6.95;;;3.08;;
26113;SDS011;13966;48.828;9.064;2024-01-06T07:01:19;3.58;;;2.13;;
26113;SDS011;13966;48.828;9.064;2024-01-06T07:03:45;4.97;;;2.45;;
26113;SDS011;13966;48.828;9.064;2024-01-06T07:06:12;6.03;;;2.60;;
26113;SDS011;13966;48.828;9.064;2024-01-06T07:08:39;7.50;;;2.67;;
26113;SDS011;13966;48.828;9.064;2024-01-06T07:11:06;6.88;;;2.55;;
26113;SDS011;13966;48.828;9.064;2024-01-06T07:13:32;6.43;;;2.67;;
26113;SDS011;13966;48.828;9.064;2024-01-06T07:15:58;6.05;;;2.90;;
26113;SDS011;13966;48.828;9.064;2024-01-06T07:18:24;5.82;;;3.08;;
26113;SDS011;13966;48.828;9.064;2024-01-06T07:20:51;6.03;;;2.47;;
26113;SDS011;13966;48.828;9.064;2024-01-06T07:23:17;3.05;;;2.42;;
26113;SDS011;13966;48.828;9.064;2024-01-06T07:25:43;4.25;;;2.28;;
26113;SDS011;13966;48.828;9.064;2024-01-06T07:28:09;5.28;;;2.65;;
26113;SDS011;13966;48.828;9.064;2024-01-06T07:30:35;4.82;;;2.50;;
26113;SDS011;13966;48.828;9.064;2024-01-06T07:33:00;3.67;;;2.10;;
26113;SDS011;13966;48.828;9.064;2024-01-06T07:35:27;4.60;;;2.30;;
26113;SDS011;13966;48.828;9.064;2024-01-06T07:37:53;4.97;;;2.53;;
26113;SDS011;13966;48.828;9.064;2024-01-06T07:40:19;5.22;;;2.10;;
26113;SDS011;13966;48.828;9.064;2024-01-06T07:42:48;4.88;;;2.20;;
26113;SDS011;13966;48.828;9.064;2024-01-06T07:45:14;3.03;;;2.25;;
26113;SDS011;13966;48.828;9.064;2024-01-06T07:47:39;5.40;;;2.80;;
26113;SDS011;13966;48.828;9.064;2024-01-06T07:50:06;5.88;;;2.42;;
26113;SDS011;13966;48.828;9.064;2024-01-06T07:52:33;5.97;;;2.60;;
26113;SDS011;13966;48.828;9.064;2024-01-06T07:54:59;3.75;;;2.17;;
26113;SDS011;13966;48.828;9.064;2024-01-06T07:57:25;3.53;;;1.90;;
26113;SDS011;13966;48.828;9.064;2024-01-06T07:59:51;15.18;;;2.75;;
26113;SDS011;13966;48.828;9.064;2024-01-06T08:02:17;6.22;;;2.53;;
26113;SDS011;13966;48.828;9.064;2024-01-06T08:04:43;5.80;;;2.50;;
26113;SDS011;13966;48.828;9.064;2024-01-06T08:07:09;7.57;;;2.53;;
26113;SDS011;13966;48.828;9.064;2024-01-06T08:09:36;3.63;;;2.10;;
26113;SDS011;13966;48.828;9.064;2024-01-06T08:12:02;4.53;;;2.20;;
26113;SDS011;13966;48.828;9.064;2024-01-06T08:14:28;4.00;;;2.45;;
26113;SDS011;13966;48.828;9.064;2024-01-06T08:16:54;4.32;;;2.10;;
26113;SDS011;13966;48.828;9.064;2024-01-06T08:19:20;4.85;;;2.53;;
26113;SDS011;13966;48.828;9.064;2024-01-06T08:21:46;7.30;;;3.17;;
26113;SDS011;13966;48.828;9.064;2024-01-06T08:24:13;4.05;;;2.65;;
26113;SDS011;13966;48.828;9.064;2024-01-06T08:26:39;3.85;;;2.50;;
26113;SDS011;13966;48.828;9.064;2024-01-06T08:29:05;4.63;;;2.83;;
26113;SDS011;13966;48.828;9.064;2024-01-06T08:31:30;7.30;;;2.88;;
26113;SDS011;13966;48.828;9.064;2024-01-06T08:33:56;3.28;;;2.30;;
26113;SDS011;13966;48.828;9.064;2024-01-06T08:36:22;5.90;;;2.63;;
26113;SDS011;13966;48.828;9.064;2024-01-06T08:38:48;3.85;;;2.50;;
26113;SDS011;13966;48.828;9.064;2024-01-06T08:41:14;6.85;;;2.33;;
26113;SDS011;13966;48.828;9.064;2024-01-06T08:43:40;6.30;;;3.13;;
26113;SDS011;13966;48.828;9.064;2024-01-06T08:46:06;7.13;;;3.22;;
26113;SDS011;13966;48.828;9.064;2024-01-06T08:48:32;5.78;;;3.08;;
26113;SDS011;13966;48.828;9.064;2024-01-06T08:50:58;5.40;;;2.95;;
26113;SDS011;13966;48.828;9.064;2024-01-06T08:53:24;4.97;;;2.22;;
26113;SDS011;13966;48.828;9.064;2024-01-06T08:55:50;4.75;;;2.30;;
26113;SDS011;13966;48.828;9.064;2024-01-06T08:58:16;3.35;;;2.00;;
26113;SDS011;13966;48.828;9.064;2024-01-06T09:00:43;3.38;;;1.65;;
26113;SDS011;13966;48.828;9.064;2024-01-06T09:03:09;2.60;;;1.90;;
26113;SDS011;13966;48.828;9.064;2024-01-06T09:05:37;2.90;;;1.60;;
26113;SDS011;13966;48.828;9.064;2024-01-06T09:08:03;2.25;;;1.40;;
26113;SDS011;13966;48.828;9.064;2024-01-06T09:10:29;1.95;;;1.50;;
26113;SDS011;13966;48.828;9.064;2024-01-06T09:12:55;2.85;;;1.90;;
26113;SDS011;13966;48.828;9.064;2024-01-06T09:15:21;9.82;;;4.63;;
26113;SDS011;13966;48.828;9.064;2024-01-06T09:17:47;4.18;;;2.60;;
26113;SDS011;13966;48.828;9.064;2024-01-06T09:20:13;2.30;;;1.70;;
26113;SDS011;13966;48.828;9.064;2024-01-06T09:22:39;3.25;;;1.95;;
26113;SDS011;13966;48.828;9.064;2024-01-06T09:25:05;3.88;;;2.30;;
26113;SDS011;13966;48.828;9.064;2024-01-06T09:27:31;8.23;;;1.88;;
26113;SDS011;13966;48.828;9.064;2024-01-06T09:29:57;1.73;;;1.60;;
26113;SDS011;13966;48.828;9.064;2024-01-06T09:32:23;4.57;;;1.90;;
26113;SDS011;13966;48.828;9.064;2024-01-06T09:34:49;4.30;;;2.15;;
26113;SDS011;13966;48.828;9.064;2024-01-06T09:37:15;2.05;;;1.52;;
26113;SDS011;13966;48.828;9.064;2024-01-06T09:39:41;2.45;;;1.67;;
26113;SDS011;13966;48.828;9.064;2024-01-06T09:42:07;3.20;;;2.17;;
26113;SDS011;13966;48.828;9.064;2024-01-06T09:44:33;3.75;;;2.47;;
26113;SDS011;13966;48.828;9.064;2024-01-06T09:46:59;5.10;;;3.30;;
26113;SDS011;13966;48.828;9.064;2024-01-06T09:49:28;12.30;;;8.35;;
26113;SDS011;13966;48.828;9.064;2024-01-06T09:51:54;7.53;;;4.70;;
26113;SDS011;13966;48.828;9.064;2024-01-06T09:54:24;4.53;;;2.80;;
26113;SDS011;13966;48.828;9.064;2024-01-06T09:56:51;3.17;;;2.35;;
26113;SDS011;13966;48.828;9.064;2024-01-06T09:59:17;5.68;;;3.15;;
26113;SDS011;13966;48.828;9.064;2024-01-06T10:01:47;2.65;;;1.80;;
26113;SDS011;13966;48.828;9.064;2024-01-06T10:04:15;2.95;;;1.95;;
26113;SDS011;13966;48.828;9.064;2024-01-06T10:06:41;4.82;;;2.42;;
26113;SDS011;13966;48.828;9.064;2024-01-06T10:09:07;4.88;;;1.95;;
26113;SDS011;13966;48.828;9.064;2024-01-06T10:11:35;1.77;;;1.67;;
26113;SDS011;13966;48.828;9.064;2024-01-06T10:14:02;2.35;;;1.83;;
26113;SDS011;13966;48.828;9.064;2024-01-06T10:16:28;2.40;;;1.42;;
26113;SDS011;13966;48.828;9.064;2024-01-06T10:18:55;2.47;;;1.60;;
26113;SDS011;13966;48.828;9.064;2024-01-06T10:21:21;3.92;;;2.92;;
26113;SDS011;13966;48.828;9.064;2024-01-06T10:23:48;3.92;;;1.80;;
26113;SDS011;13966;48.828;9.064;2024-01-06T10:26:14;4.05;;;1.85;;
26113;SDS011;13966;48.828;9.064;2024-01-06T10:28:40;3.17;;;2.05;;
26113;SDS011;13966;48.828;9.064;2024-01-06T10:31:07;2.88;;;2.00;;
26113;SDS011;13966;48.828;9.064;2024-01-06T10:33:33;2.17;;;1.80;;
26113;SDS011;13966;48.828;9.064;2024-01-06T10:35:59;3.47;;;1.90;;
26113;SDS011;13966;48.828;9.064;2024-01-06T10:38:26;3.97;;;2.47;;
26113;SDS011;13966;48.828;9.064;2024-01-06T10:40:56;4.57;;;2.80;;
26113;SDS011;13966;48.828;9.064;2024-01-06T10:43:26;3.13;;;2.83;;
26113;SDS011;13966;48.828;9.064;2024-01-06T10:45:59;3.15;;;2.55;;
26113;SDS011;13966;48.828;9.064;2024-01-06T10:48:29;4.25;;;3.00;;
26113;SDS011;13966;48.828;9.064;2024-01-06T10:50:56;2.80;;;2.50;;
26113;SDS011;13966;48.828;9.064;2024-01-06T10:53:22;5.88;;;2.40;;
26113;SDS011;13966;48.828;9.064;2024-01-06T10:55:49;2.90;;;2.20;;
26113;SDS011;13966;48.828;9.064;2024-01-06T10:58:17;2.63;;;2.05;;
26113;SDS011;13966;48.828;9.064;2024-01-06T11:00:43;3.67;;;2.40;;
26113;SDS011;13966;48.828;9.064;2024-01-06T11:03:09;2.95;;;2.63;;
26113;SDS011;13966;48.828;9.064;2024-01-06T11:05:36;2.90;;;2.10;;
26113;SDS011;13966;48.828;9.064;2024-01-06T11:08:02;4.60;;;2.88;;
26113;SDS011;13966;48.828;9.064;2024-01-06T11:10:29;4.07;;;3.10;;
26113;SDS011;13966;48.828;9.064;2024-01-06T11:13:12;4.22;;;3.38;;
26113;SDS011;13966;48.828;9.064;2024-01-06T11:15:38;6.15;;;4.03;;
26113;SDS011;13966;48.828;9.064;2024-01-06T11:18:05;3.95;;;3.10;;
26113;SDS011;13966;48.828;9.064;2024-01-06T11:20:31;4.25;;;3.22;;
26113;SDS011;13966;48.828;9.064;2024-01-06T11:23:17;4.70;;;3.30;;
26113;SDS011;13966;48.828;9.064;2024-01-06T11:25:45;5.97;;;2.88;;
26113;SDS011;13966;48.828;9.064;2024-01-06T11:28:10;4.53;;;3.40;;
26113;SDS011;13966;48.828;9.064;2024-01-06T11:30:37;5.20;;;3.35;;
26113;SDS011;13966;48.828;9.064;2024-01-06T11:33:04;6.95;;;3.90;;
26113;SDS011;13966;48.828;9.064;2024-01-06T11:35:30;8.18;;;3.58;;
26113;SDS011;13966;48.828;9.064;2024-01-06T11:37:57;4.15;;;3.25;;
26113;SDS011;13966;48.828;9.064;2024-01-06T11:40:24;4.07;;;2.97;;
26113;SDS011;13966;48.828;9.064;2024-01-06T11:42:57;6.40;;;3.47;;
26113;SDS011;13966;48.828;9.064;2024-01-06T11:45:24;5.90;;;3.63;;
26113;SDS011;13966;48.828;9.064;2024-01-06T11:47:50;5.88;;;4.38;;
26113;SDS011;13966;48.828;9.064;2024-01-06T11:50:19;6.53;;;3.47;;
26113;SDS011;13966;48.828;9.064;2024-01-06T11:52:45;6.47;;;4.13;;
26113;SDS011;13966;48.828;9.064;2024-01-06T11:55:12;7.45;;;4.10;;
26113;SDS011;13966;48.828;9.064;2024-01-06T11:57:38;5.93;;;4.00;;
26113;SDS011;13966;48.828;9.064;2024-01-06T12:00:07;6.22;;;4.35;;
26113;SDS011;13966;48.828;9.064;2024-01-06T12:02:33;5.85;;;3.65;;
26113;SDS011;13966;48.828;9.064;2024-01-06T12:04:59;6.10;;;4.10;;
26113;SDS011;13966;48.828;9.064;2024-01-06T12:07:25;6.15;;;4.22;;
26113;SDS011;13966;48.828;9.064;2024-01-06T12:09:59;6.25;;;4.72;;
26113;SDS011;13966;48.828;9.064;2024-01-06T12:12:26;8.80;;;5.95;;
26113;SDS011;13966;48.828;9.064;2024-01-06T12:14:52;6.72;;;4.15;;
26113;SDS011;13966;48.828;9.064;2024-01-06T12:17:19;4.72;;;3.97;;
26113;SDS011;13966;48.828;9.064;2024-01-06T12:19:46;4.05;;;3.50;;
26113;SDS011;13966;48.828;9.064;2024-01-06T12:22:13;4.45;;;3.00;;
26113;SDS011;13966;48.828;9.064;2024-01-06T12:24:40;4.63;;;3.17;;
26113;SDS011;13966;48.828;9.064;2024-01-06T12:27:07;4.38;;;3.85;;
26113;SDS011;13966;48.828;9.064;2024-01-06T12:29:37;4.15;;;3.42;;
26113;SDS011;13966;48.828;9.064;2024-01-06T12:32:03;5.40;;;4.10;;
26113;SDS011;13966;48.828;9.064;2024-01-06T12:34:29;6.28;;;3.90;;
26113;SDS011;13966;48.828;9.064;2024-01-06T12:36:55;5.80;;;3.88;;
26113;SDS011;13966;48.828;9.064;2024-01-06T12:39:21;4.72;;;4.20;;
26113;SDS011;13966;48.828;9.064;2024-01-06T12:41:48;6.20;;;4.70;;
26113;SDS011;13966;48.828;9.064;2024-01-06T12:44:15;7.38;;;5.60;;
26113;SDS011;13966;48.828;9.064;2024-01-06T12:46:41;5.75;;;4.25;;
26113;SDS011;13966;48.828;9.064;2024-01-06T12:49:07;5.90;;;4.10;;
26113;SDS011;13966;48.828;9.064;2024-01-06T12:51:33;14.68;;;10.35;;
26113;SDS011;13966;48.828;9.064;2024-01-06T12:53:59;8.90;;;6.13;;
26113;SDS011;13966;48.828;9.064;2024-01-06T12:56:25;7.15;;;4.78;;
26113;SDS011;13966;48.828;9.064;2024-01-06T12:58:51;5.15;;;4.05;;
26113;SDS011;13966;48.828;9.064;2024-01-06T13:01:18;5.68;;;4.63;;
26113;SDS011;13966;48.828;9.064;2024-01-06T13:03:44;7.90;;;5.40;;
26113;SDS011;13966;48.828;9.064;2024-01-06T13:06:10;7.03;;;5.40;;
26113;SDS011;13966;48.828;9.064;2024-01-06T13:08:36;7.38;;;5.50;;
26113;SDS011;13966;48.828;9.064;2024-01-06T13:11:02;5.25;;;4.47;;
26113;SDS011;13966;48.828;9.064;2024-01-06T13:13:28;7.95;;;5.00;;
26113;SDS011;13966;48.828;9.064;2024-01-06T13:15:56;7.30;;;5.32;;
26113;SDS011;13966;48.828;9.064;2024-01-06T13:18:22;6.65;;;4.60;;
26113;SDS011;13966;48.828;9.064;2024-01-06T13:20:48;6.07;;;4.80;;
26113;SDS011;13966;48.828;9.064;2024-01-06T13:23:14;7.05;;;5.18;;
26113;SDS011;13966;48.828;9.064;2024-01-06T13:25:40;6.97;;;4.40;;
26113;SDS011;13966;48.828;9.064;2024-01-06T13:28:07;11.57;;;5.57;;
26113;SDS011;13966;48.828;9.064;2024-01-06T13:30:33;8.13;;;5.82;;
26113;SDS011;13966;48.828;9.064;2024-01-06T13:32:59;13.88;;;7.28;;
26113;SDS011;13966;48.828;9.064;2024-01-06T13:35:25;14.27;;;6.57;;
26113;SDS011;13966;48.828;9.064;2024-01-06T13:37:52;11.77;;;6.60;;
26113;SDS011;13966;48.828;9.064;2024-01-06T13:40:20;8.40;;;5.47;;
26113;SDS011;13966;48.828;9.064;2024-01-06T13:42:47;6.22;;;4.82;;
26113;SDS011;13966;48.828;9.064;2024-01-06T13:45:13;5.85;;;4.57;;
26113;SDS011;13966;48.828;9.064;2024-01-06T13:47:39;6.05;;;4.93;;
26113;SDS011;13966;48.828;9.064;2024-01-06T13:50:10;8.13;;;4.88;;
26113;SDS011;13966;48.828;9.064;2024-01-06T13:52:36;9.65;;;5.65;;
26113;SDS011;13966;48.828;9.064;2024-01-06T13:55:03;6.53;;;5.05;;
26113;SDS011;13966;48.828;9.064;2024-01-06T13:57:29;8.07;;;5.07;;
26113;SDS011;13966;48.828;9.064;2024-01-06T13:59:55;6.30;;;4.95;;
26113;SDS011;13966;48.828;9.064;2024-01-06T14:02:22;6.22;;;4.57;;
26113;SDS011;13966;48.828;9.064;2024-01-06T14:04:48;8.02;;;4.93;;
26113;SDS011;13966;48.828;9.064;2024-01-06T14:07:14;6.35;;;5.13;;
26113;SDS011;13966;48.828;9.064;2024-01-06T14:09:43;7.85;;;5.60;;
26113;SDS011;13966;48.828;9.064;2024-01-06T14:12:09;9.38;;;6.07;;
26113;SDS011;13966;48.828;9.064;2024-01-06T14:14:35;9.80;;;7.10;;
26113;SDS011;13966;48.828;9.064;2024-01-06T14:17:01;11.90;;;7.30;;
26113;SDS011;13966;48.828;9.064;2024-01-06T14:19:27;14.52;;;8.20;;
26113;SDS011;13966;48.828;9.064;2024-01-06T14:21:53;12.75;;;7.55;;
26113;SDS011;13966;48.828;9.064;2024-01-06T14:24:19;9.32;;;6.40;;
26113;SDS011;13966;48.828;9.064;2024-01-06T14:26:49;8.25;;;6.22;;
26113;SDS011;13966;48.828;9.064;2024-01-06T14:29:15;10.77;;;6.95;;
26113;SDS011;13966;48.828;9.064;2024-01-06T14:31:42;8.98;;;6.28;;
26113;SDS011;13966;48.828;9.064;2024-01-06T14:34:08;9.30;;;6.22;;
26113;SDS011;13966;48.828;9.064;2024-01-06T14:36:34;12.60;;;7.50;;
26113;SDS011;13966;48.828;9.064;2024-01-06T14:39:00;11.18;;;7.88;;
26113;SDS011;13966;48.828;9.064;2024-01-06T14:41:28;11.93;;;6.95;;
26113;SDS011;13966;48.828;9.064;2024-01-06T14:43:54;10.45;;;6.93;;